Terminal Aerodrome Forecast
Issued by NWS Grand Forks, ND

Home | Current Version | Previous Version | Graphics & Text | Print | Product List | Glossary On
Versions: 1 2 3 4 5 6 7 8 9 10 11 12 13 14 15 16 17 18 19 20 21 22 23 24 25
799
FTUS43 KFGF 260520
TAFGFK
TAF
KGFK 260520Z 2606/2706 27008KT P6SM BKN005
     FM261500 27007KT P6SM BKN012
     FM261800 26011KT P6SM BKN040
     FM262100 26011KT P6SM SCT060=

USA.gov is the U.S. government's official web portal to all federal, state and local government web resources and services.